Airfield :
LOGIN :

Register | Disclaimer

   EN    FR    IT 

 










Legend :    VFR   Marginal VFR   IFR   Intensive IFR   Very Intensive IFR
Visi :
Ceiling :
>= 8 km
>= 3000ft
5 to 8 km
1000 to 3000 ft
1500m to 5 km
500 to 1000 ft
800 to 1500m
200 to 500 ft
< 800m
< 200 ft
Symbols :   Thunderstorms  Fog  Heavy snow  Heavy precipitations  Wind > 20 kt
SIGMETs :     Misc.  Thunderstorms  Icing  Turbulence  Mountain Waves  Volcanic Ashes







- Airport Elevation : 39 ft
- IATA code : TRS


LIPQ - Friuli Venezia Giulia Apt. Trieste

CURRENT METAR :
  • 180620Z VRB02KT 9999 FEW025 SCT045 20/19 Q1015

EXPIRED METARs :
  • 180550Z 01003KT 9000 SCT040 19/18 Q1014
  • 180520Z 36003KT 320V020 9000 SCT060 19/18 Q1014
  • 180450Z 02005KT 9000 SCT060 19/18 Q1014
  • 180420Z 01004KT 9999 SCT060 19/18 Q1014
  • 180350Z AUTO 36004KT 9999 SCT110/// 19/18 Q1014

TAF TAF LIPQ
Valid from the 18 at 06:00 until the 19 at 06:00 UTC


180500Z 1806/1906 09014KT 9999 SCT040
TEMPO 1807/1812 TSRA
No reported NOTAMs for that airfield.



MET'MAP, your aeronautical weather chart ! - Copyright ORBIFLY December 2007 - Disclaimer

ORBIFLY MET'MAP TEAM :

Programming & Development : Alexandra Zaïnal
Concept & Development : Baudouin d'Aumeries
Co-Development & Prog : Marc-Olivier Méhu
Technical & hardware support : Manuel Goepfert

Contact : metmap@orbifly.com




SOURCES & CREDITS :

   NOAA